sensor_id;sensor_type;location;lat;lon;timestamp;pressure;altitude;pressure_sealevel;temperature;humidity
6668;BME280;3370;47.712;9.082;2023-09-19T00:00:48;96852.84;;;17.12;100.00
6668;BME280;3370;47.712;9.082;2023-09-19T00:03:14;96848.78;;;17.08;100.00
6668;BME280;3370;47.712;9.082;2023-09-19T00:05:40;96851.38;;;17.08;100.00
6668;BME280;3370;47.712;9.082;2023-09-19T00:08:10;96843.16;;;17.14;100.00
6668;BME280;3370;47.712;9.082;2023-09-19T00:10:39;96847.84;;;17.09;99.82
6668;BME280;3370;47.712;9.082;2023-09-19T00:13:06;96848.47;;;17.12;97.92
6668;BME280;3370;47.712;9.082;2023-09-19T00:15:51;96848.34;;;17.14;96.38
6668;BME280;3370;47.712;9.082;2023-09-19T00:18:18;96853.44;;;17.15;97.06
6668;BME280;3370;47.712;9.082;2023-09-19T00:20:46;96857.78;;;17.15;98.19
6668;BME280;3370;47.712;9.082;2023-09-19T00:23:13;96857.06;;;17.13;99.38
6668;BME280;3370;47.712;9.082;2023-09-19T00:25:39;96868.16;;;17.15;99.63
6668;BME280;3370;47.712;9.082;2023-09-19T00:28:06;96868.78;;;17.18;99.91
6668;BME280;3370;47.712;9.082;2023-09-19T00:30:34;96869.84;;;17.16;100.00
6668;BME280;3370;47.712;9.082;2023-09-19T00:33:00;96874.34;;;17.25;99.31
6668;BME280;3370;47.712;9.082;2023-09-19T00:35:27;96881.75;;;17.18;99.60
6668;BME280;3370;47.712;9.082;2023-09-19T00:37:56;96875.03;;;17.16;100.00
6668;BME280;3370;47.712;9.082;2023-09-19T00:40:22;96881.53;;;17.10;100.00
6668;BME280;3370;47.712;9.082;2023-09-19T00:42:49;96880.44;;;17.13;99.04
6668;BME280;3370;47.712;9.082;2023-09-19T00:45:17;96877.16;;;17.11;98.66
6668;BME280;3370;47.712;9.082;2023-09-19T00:47:51;96879.53;;;17.14;96.55
6668;BME280;3370;47.712;9.082;2023-09-19T00:50:23;96874.53;;;17.11;96.34
6668;BME280;3370;47.712;9.082;2023-09-19T00:52:54;96878.31;;;17.07;97.14
6668;BME280;3370;47.712;9.082;2023-09-19T00:55:24;96881.81;;;16.94;98.82
6668;BME280;3370;47.712;9.082;2023-09-19T00:57:50;96874.13;;;16.93;98.22
6668;BME280;3370;47.712;9.082;2023-09-19T01:00:16;96871.22;;;16.97;98.67
6668;BME280;3370;47.712;9.082;2023-09-19T01:02:46;96881.09;;;16.92;100.00
6668;BME280;3370;47.712;9.082;2023-09-19T01:05:13;96883.69;;;16.92;100.00
6668;BME280;3370;47.712;9.082;2023-09-19T01:07:39;96879.44;;;16.91;98.25
6668;BME280;3370;47.712;9.082;2023-09-19T01:10:12;96885.84;;;16.98;97.66
6668;BME280;3370;47.712;9.082;2023-09-19T01:29:39;96901.91;;;16.79;96.63
6668;BME280;3370;47.712;9.082;2023-09-19T01:32:11;96902.44;;;16.84;96.16
6668;BME280;3370;47.712;9.082;2023-09-19T01:34:52;96905.16;;;16.83;95.55
6668;BME280;3370;47.712;9.082;2023-09-19T01:37:21;96905.22;;;16.81;96.82
6668;BME280;3370;47.712;9.082;2023-09-19T01:40:02;96913.22;;;16.78;98.80
6668;BME280;3370;47.712;9.082;2023-09-19T01:43:12;96909.69;;;16.79;98.08
6668;BME280;3370;47.712;9.082;2023-09-19T01:48:58;96909.09;;;16.76;96.70
6668;BME280;3370;47.712;9.082;2023-09-19T01:54:27;96916.84;;;16.64;96.18
6668;BME280;3370;47.712;9.082;2023-09-19T01:57:22;96929.31;;;16.59;97.20
6668;BME280;3370;47.712;9.082;2023-09-19T02:00:14;96922.69;;;16.55;97.54
6668;BME280;3370;47.712;9.082;2023-09-19T02:02:47;96917.50;;;16.55;98.64
6668;BME280;3370;47.712;9.082;2023-09-19T02:05:21;96917.38;;;16.57;98.96
6668;BME280;3370;47.712;9.082;2023-09-19T02:07:47;96921.00;;;16.54;100.00
6668;BME280;3370;47.712;9.082;2023-09-19T02:10:14;96927.88;;;16.55;100.00
6668;BME280;3370;47.712;9.082;2023-09-19T02:12:39;96930.25;;;16.58;100.00
6668;BME280;3370;47.712;9.082;2023-09-19T02:15:06;96931.59;;;16.51;100.00
6668;BME280;3370;47.712;9.082;2023-09-19T02:17:32;96934.31;;;16.49;100.00
6668;BME280;3370;47.712;9.082;2023-09-19T02:19:58;96941.34;;;16.60;100.00
6668;BME280;3370;47.712;9.082;2023-09-19T02:22:29;96934.50;;;16.59;100.00
6668;BME280;3370;47.712;9.082;2023-09-19T02:24:55;96931.84;;;16.48;100.00
6668;BME280;3370;47.712;9.082;2023-09-19T02:27:24;96933.09;;;16.42;100.00
6668;BME280;3370;47.712;9.082;2023-09-19T02:29:49;96937.44;;;16.42;100.00
6668;BME280;3370;47.712;9.082;2023-09-19T02:32:15;96934.75;;;16.43;100.00
6668;BME280;3370;47.712;9.082;2023-09-19T02:34:43;96942.63;;;16.42;100.00
6668;BME280;3370;47.712;9.082;2023-09-19T02:37:10;96943.69;;;16.39;100.00
6668;BME280;3370;47.712;9.082;2023-09-19T02:39:36;96949.91;;;16.37;100.00
6668;BME280;3370;47.712;9.082;2023-09-19T02:42:02;96954.09;;;16.39;100.00
6668;BME280;3370;47.712;9.082;2023-09-19T02:44:30;96946.19;;;16.41;100.00
6668;BME280;3370;47.712;9.082;2023-09-19T02:46:55;96945.25;;;16.42;100.00
6668;BME280;3370;47.712;9.082;2023-09-19T02:49:23;96954.09;;;16.39;100.00
6668;BME280;3370;47.712;9.082;2023-09-19T02:51:49;96945.94;;;16.44;100.00
6668;BME280;3370;47.712;9.082;2023-09-19T02:54:15;96943.47;;;16.42;100.00
6668;BME280;3370;47.712;9.082;2023-09-19T02:56:41;96945.03;;;16.45;100.00
6668;BME280;3370;47.712;9.082;2023-09-19T02:59:07;96950.72;;;16.50;100.00
6668;BME280;3370;47.712;9.082;2023-09-19T03:01:36;96937.25;;;16.45;100.00
6668;BME280;3370;47.712;9.082;2023-09-19T03:04:04;96935.16;;;16.50;100.00
6668;BME280;3370;47.712;9.082;2023-09-19T03:06:32;96937.25;;;16.45;100.00
6668;BME280;3370;47.712;9.082;2023-09-19T03:08:58;96935.56;;;16.44;100.00
6668;BME280;3370;47.712;9.082;2023-09-19T03:11:25;96943.47;;;16.42;100.00
6668;BME280;3370;47.712;9.082;2023-09-19T03:13:55;96944.06;;;16.46;100.00
6668;BME280;3370;47.712;9.082;2023-09-19T03:16:21;96944.31;;;16.43;100.00
6668;BME280;3370;47.712;9.082;2023-09-19T03:18:51;96941.72;;;16.43;100.00
6668;BME280;3370;47.712;9.082;2023-09-19T03:21:17;96947.84;;;16.42;100.00
6668;BME280;3370;47.712;9.082;2023-09-19T03:23:44;96937.25;;;16.45;100.00
6668;BME280;3370;47.712;9.082;2023-09-19T03:26:13;96937.25;;;16.45;100.00
6668;BME280;3370;47.712;9.082;2023-09-19T03:28:41;96936.63;;;16.41;100.00
6668;BME280;3370;47.712;9.082;2023-09-19T03:31:08;96939.53;;;16.37;100.00
6668;BME280;3370;47.712;9.082;2023-09-19T03:33:34;96945.13;;;16.43;100.00
6668;BME280;3370;47.712;9.082;2023-09-19T03:36:01;96944.72;;;16.37;100.00
6668;BME280;3370;47.712;9.082;2023-09-19T03:38:30;96940.38;;;16.37;100.00
6668;BME280;3370;47.712;9.082;2023-09-19T03:40:57;96941.81;;;16.41;100.00
6668;BME280;3370;47.712;9.082;2023-09-19T03:43:22;96950.22;;;16.45;100.00
6668;BME280;3370;47.712;9.082;2023-09-19T03:45:48;96946.28;;;16.39;100.00
6668;BME280;3370;47.712;9.082;2023-09-19T03:48:16;96949.72;;;16.40;100.00
6668;BME280;3370;47.712;9.082;2023-09-19T03:50:42;96942.13;;;16.37;100.00
6668;BME280;3370;47.712;9.082;2023-09-19T03:53:09;96941.22;;;16.38;100.00
6668;BME280;3370;47.712;9.082;2023-09-19T03:55:35;96944.31;;;16.43;98.41
6668;BME280;3370;47.712;9.082;2023-09-19T03:58:04;96941.22;;;16.38;99.31
6668;BME280;3370;47.712;9.082;2023-09-19T04:00:30;96939.66;;;16.35;99.11
6668;BME280;3370;47.712;9.082;2023-09-19T04:02:56;96943.09;;;16.36;99.29
6668;BME280;3370;47.712;9.082;2023-09-19T04:05:23;96949.81;;;16.38;98.36
6668;BME280;3370;47.712;9.082;2023-09-19T04:07:49;96945.53;;;16.50;97.41
6668;BME280;3370;47.712;9.082;2023-09-19T04:10:19;96943.69;;;16.39;97.74
6668;BME280;3370;47.712;9.082;2023-09-19T04:12:52;96943.81;;;16.38;98.96
6668;BME280;3370;47.712;9.082;2023-09-19T04:15:19;96942.25;;;16.35;98.70
6668;BME280;3370;47.712;9.082;2023-09-19T04:17:45;96938.50;;;16.39;98.87
6668;BME280;3370;47.712;9.082;2023-09-19T04:20:11;96942.84;;;16.39;99.25
6668;BME280;3370;47.712;9.082;2023-09-19T04:22:40;96942.38;;;16.34;100.00
6668;BME280;3370;47.712;9.082;2023-09-19T04:25:06;96945.78;;;16.34;98.97
6668;BME280;3370;47.712;9.082;2023-09-19T04:27:33;96952.50;;;16.37;99.51
6668;BME280;3370;47.712;9.082;2023-09-19T04:29:59;96953.22;;;16.39;100.00
6668;BME280;3370;47.712;9.082;2023-09-19T04:32:34;96954.50;;;16.33;100.00
6668;BME280;3370;47.712;9.082;2023-09-19T04:35:01;96960.72;;;16.31;100.00
6668;BME280;3370;47.712;9.082;2023-09-19T04:37:31;96971.94;;;16.31;100.00
6668;BME280;3370;47.712;9.082;2023-09-19T04:39:57;96968.22;;;16.35;100.00
6668;BME280;3370;47.712;9.082;2023-09-19T04:42:22;96964.88;;;16.33;100.00
6668;BME280;3370;47.712;9.082;2023-09-19T04:44:50;96964.88;;;16.33;100.00
6668;BME280;3370;47.712;9.082;2023-09-19T04:47:19;96957.09;;;16.33;100.00
6668;BME280;3370;47.712;9.082;2023-09-19T04:49:45;96967.88;;;16.40;100.00
6668;BME280;3370;47.712;9.082;2023-09-19T04:52:10;96976.47;;;16.40;100.00
6668;BME280;3370;47.712;9.082;2023-09-19T04:54:37;96969.75;;;16.38;100.00
6668;BME280;3370;47.712;9.082;2023-09-19T04:57:03;96972.56;;;16.35;100.00
6668;BME280;3370;47.712;9.082;2023-09-19T04:59:31;96981.78;;;16.39;100.00
6668;BME280;3370;47.712;9.082;2023-09-19T05:01:57;96974.44;;;16.33;99.12
6668;BME280;3370;47.712;9.082;2023-09-19T05:04:22;96974.44;;;16.33;98.20
6668;BME280;3370;47.712;9.082;2023-09-19T05:06:48;96984.38;;;16.39;97.89
6668;BME280;3370;47.712;9.082;2023-09-19T05:09:14;96984.97;;;16.42;97.89
6668;BME280;3370;47.712;9.082;2023-09-19T05:11:41;96990.41;;;16.39;96.49
6668;BME280;3370;47.712;9.082;2023-09-19T05:14:07;96992.50;;;16.34;97.55
6668;BME280;3370;47.712;9.082;2023-09-19T05:16:32;96989.06;;;16.34;98.44
6668;BME280;3370;47.712;9.082;2023-09-19T05:18:59;97007.63;;;16.27;98.69
6668;BME280;3370;47.712;9.082;2023-09-19T05:21:26;96993.31;;;16.35;96.96
6668;BME280;3370;47.712;9.082;2023-09-19T05:23:54;97003.69;;;16.35;98.36
6668;BME280;3370;47.712;9.082;2023-09-19T05:26:20;97003.91;;;16.32;97.87
6668;BME280;3370;47.712;9.082;2023-09-19T05:28:46;97008.56;;;16.39;99.24
6668;BME280;3370;47.712;9.082;2023-09-19T05:31:13;97005.25;;;16.37;99.66
6668;BME280;3370;47.712;9.082;2023-09-19T05:33:40;97012.00;;;16.40;98.43
6668;BME280;3370;47.712;9.082;2023-09-19T05:36:06;97010.31;;;16.39;97.82
6668;BME280;3370;47.712;9.082;2023-09-19T05:38:35;97013.16;;;16.36;98.45
6668;BME280;3370;47.712;9.082;2023-09-19T05:41:01;97014.78;;;16.37;97.79
6668;BME280;3370;47.712;9.082;2023-09-19T05:43:27;97021.56;;;16.39;99.37
6668;BME280;3370;47.712;9.082;2023-09-19T05:45:53;97032.75;;;16.40;97.91
6668;BME280;3370;47.712;9.082;2023-09-19T05:48:21;97030.34;;;16.37;99.49
6668;BME280;3370;47.712;9.082;2023-09-19T05:50:48;97038.56;;;16.31;99.58
6668;BME280;3370;47.712;9.082;2023-09-19T05:53:14;97042.19;;;16.15;100.00
6668;BME280;3370;47.712;9.082;2023-09-19T05:55:41;97044.41;;;16.08;100.00
6668;BME280;3370;47.712;9.082;2023-09-19T05:58:07;97043.53;;;16.08;100.00
6668;BME280;3370;47.712;9.082;2023-09-19T06:00:34;97046.66;;;16.13;100.00
6668;BME280;3370;47.712;9.082;2023-09-19T06:03:00;97045.22;;;16.09;100.00
6668;BME280;3370;47.712;9.082;2023-09-19T06:05:27;97047.38;;;16.15;100.00
6668;BME280;3370;47.712;9.082;2023-09-19T06:07:53;97052.81;;;16.12;100.00
6668;BME280;3370;47.712;9.082;2023-09-19T06:10:20;97052.56;;;16.15;99.42
6668;BME280;3370;47.712;9.082;2023-09-19T06:12:49;97044.78;;;16.15;100.00
6668;BME280;3370;47.712;9.082;2023-09-19T06:15:16;97046.47;;;16.16;100.00
6668;BME280;3370;47.712;9.082;2023-09-19T06:17:53;97053.94;;;16.21;99.51
6668;BME280;3370;47.712;9.082;2023-09-19T06:20:23;97055.41;;;16.12;99.42
6668;BME280;3370;47.712;9.082;2023-09-19T06:22:49;97056.31;;;16.11;100.00
6668;BME280;3370;47.712;9.082;2023-09-19T06:25:16;97054.78;;;16.21;100.00
6668;BME280;3370;47.712;9.082;2023-09-19T06:27:49;97059.97;;;16.21;100.00
6668;BME280;3370;47.712;9.082;2023-09-19T06:30:18;97066.41;;;16.16;100.00
6668;BME280;3370;47.712;9.082;2023-09-19T06:32:44;97069.59;;;16.19;100.00
6668;BME280;3370;47.712;9.082;2023-09-19T06:35:11;97073.44;;;16.14;100.00
6668;BME280;3370;47.712;9.082;2023-09-19T06:37:38;97062.75;;;16.18;100.00
6668;BME280;3370;47.712;9.082;2023-09-19T06:40:12;97066.59;;;16.13;100.00
6668;BME280;3370;47.712;9.082;2023-09-19T06:42:44;97060.16;;;16.18;100.00
6668;BME280;3370;47.712;9.082;2023-09-19T06:45:14;97071.88;;;16.11;100.00
6668;BME280;3370;47.712;9.082;2023-09-19T06:47:45;97067.03;;;16.19;100.00
6668;BME280;3370;47.712;9.082;2023-09-19T06:50:12;97080.00;;;16.19;100.00
6668;BME280;3370;47.712;9.082;2023-09-19T06:52:43;97084.31;;;16.19;100.00
6668;BME280;3370;47.712;9.082;2023-09-19T06:55:09;97075.63;;;16.33;100.00
6668;BME280;3370;47.712;9.082;2023-09-19T06:57:37;97077.59;;;16.29;99.78
6668;BME280;3370;47.712;9.082;2023-09-19T07:00:03;97094.84;;;16.30;100.00
6668;BME280;3370;47.712;9.082;2023-09-19T07:02:35;97096.19;;;16.23;100.00
6668;BME280;3370;47.712;9.082;2023-09-19T07:05:00;97110.69;;;16.38;100.00
6668;BME280;3370;47.712;9.082;2023-09-19T07:07:26;97099.91;;;16.44;100.00
6668;BME280;3370;47.712;9.082;2023-09-19T07:09:52;97099.59;;;16.49;99.63
6668;BME280;3370;47.712;9.082;2023-09-19T07:12:19;97096.06;;;16.50;100.00
6668;BME280;3370;47.712;9.082;2023-09-19T07:14:45;97087.34;;;16.51;100.00
6668;BME280;3370;47.712;9.082;2023-09-19T07:17:11;97098.34;;;16.55;100.00
6668;BME280;3370;47.712;9.082;2023-09-19T07:19:37;97101.47;;;16.47;99.08
6668;BME280;3370;47.712;9.082;2023-09-19T07:22:03;97106.84;;;16.57;100.00
6668;BME280;3370;47.712;9.082;2023-09-19T07:24:29;97085.06;;;16.59;100.00
6668;BME280;3370;47.712;9.082;2023-09-19T07:26:54;97102.50;;;16.70;100.00
6668;BME280;3370;47.712;9.082;2023-09-19T07:29:21;97105.38;;;16.78;99.71
6668;BME280;3370;47.712;9.082;2023-09-19T07:31:46;97118.69;;;16.86;98.44
6668;BME280;3370;47.712;9.082;2023-09-19T07:34:12;97100.94;;;16.93;96.50
6668;BME280;3370;47.712;9.082;2023-09-19T07:36:39;97105.47;;;17.02;97.27
6668;BME280;3370;47.712;9.082;2023-09-19T07:39:07;97114.50;;;16.97;96.11
6668;BME280;3370;47.712;9.082;2023-09-19T07:41:33;97108.72;;;16.93;96.32
6668;BME280;3370;47.712;9.082;2023-09-19T07:43:59;97114.91;;;17.03;94.50
6668;BME280;3370;47.712;9.082;2023-09-19T07:46:25;97111.78;;;17.11;93.93
6668;BME280;3370;47.712;9.082;2023-09-19T07:48:52;97110.09;;;17.23;96.00
6668;BME280;3370;47.712;9.082;2023-09-19T07:51:17;97109.44;;;17.32;95.57
6668;BME280;3370;47.712;9.082;2023-09-19T07:53:43;97111.97;;;17.45;91.34
6668;BME280;3370;47.712;9.082;2023-09-19T07:56:10;97107.50;;;17.47;93.28
6668;BME280;3370;47.712;9.082;2023-09-19T07:58:39;97117.06;;;17.47;92.60
6668;BME280;3370;47.712;9.082;2023-09-19T08:01:08;97113.97;;;17.41;90.76
6668;BME280;3370;47.712;9.082;2023-09-19T08:03:35;97106.31;;;17.27;89.60
6668;BME280;3370;47.712;9.082;2023-09-19T08:06:06;97110.56;;;17.41;88.90
6668;BME280;3370;47.712;9.082;2023-09-19T08:08:33;97109.88;;;17.50;89.43
6668;BME280;3370;47.712;9.082;2023-09-19T08:11:03;97122.53;;;17.55;89.14
6668;BME280;3370;47.712;9.082;2023-09-19T08:13:40;97120.00;;;17.66;88.53
6668;BME280;3370;47.712;9.082;2023-09-19T08:16:10;97125.63;;;17.60;85.89
6668;BME280;3370;47.712;9.082;2023-09-19T08:18:37;97118.91;;;17.57;88.62
6668;BME280;3370;47.712;9.082;2023-09-19T08:21:06;97129.16;;;17.48;89.08
6668;BME280;3370;47.712;9.082;2023-09-19T08:23:37;97132.22;;;17.53;92.66
6668;BME280;3370;47.712;9.082;2023-09-19T08:26:04;97123.66;;;17.39;88.47
6668;BME280;3370;47.712;9.082;2023-09-19T08:28:34;97136.44;;;17.42;89.46
6668;BME280;3370;47.712;9.082;2023-09-19T08:31:04;97142.16;;;17.48;89.03
6668;BME280;3370;47.712;9.082;2023-09-19T08:33:35;97142.09;;;17.60;87.05
6668;BME280;3370;47.712;9.082;2023-09-19T08:36:02;97149.84;;;17.73;88.23
6668;BME280;3370;47.712;9.082;2023-09-19T08:38:33;97144.16;;;17.79;85.99
6668;BME280;3370;47.712;9.082;2023-09-19T08:41:00;97146.03;;;17.90;85.52
6668;BME280;3370;47.712;9.082;2023-09-19T08:43:27;97147.84;;;18.01;83.61
6668;BME280;3370;47.712;9.082;2023-09-19T08:48:46;97163.78;;;17.96;83.92
6668;BME280;3370;47.712;9.082;2023-09-19T08:51:25;97155.34;;;18.17;84.27
6668;BME280;3370;47.712;9.082;2023-09-19T08:54:07;97148.06;;;18.45;83.25
6668;BME280;3370;47.712;9.082;2023-09-19T08:56:33;97149.09;;;18.31;83.22
6668;BME280;3370;47.712;9.082;2023-09-19T08:59:06;97154.38;;;18.18;83.09
6668;BME280;3370;47.712;9.082;2023-09-19T09:01:38;97159.06;;;18.37;83.16
6668;BME280;3370;47.712;9.082;2023-09-19T09:04:09;97155.66;;;18.01;83.08
6668;BME280;3370;47.712;9.082;2023-09-19T09:06:39;97162.16;;;17.82;84.80
6668;BME280;3370;47.712;9.082;2023-09-19T09:09:09;97159.56;;;17.82;83.87
6668;BME280;3370;47.712;9.082;2023-09-19T09:11:34;97163.31;;;17.91;83.44
6668;BME280;3370;47.712;9.082;2023-09-19T09:14:02;97149.84;;;18.33;82.97
6668;BME280;3370;47.712;9.082;2023-09-19T09:16:30;97151.78;;;18.76;83.24
6668;BME280;3370;47.712;9.082;2023-09-19T09:18:56;97164.78;;;18.76;79.29
6668;BME280;3370;47.712;9.082;2023-09-19T09:21:25;97153.06;;;18.70;80.05
6668;BME280;3370;47.712;9.082;2023-09-19T09:23:51;97159.84;;;18.73;81.91
6668;BME280;3370;47.712;9.082;2023-09-19T09:26:41;97168.63;;;18.83;80.30
6668;BME280;3370;47.712;9.082;2023-09-19T09:29:08;97161.38;;;18.64;80.02
6668;BME280;3370;47.712;9.082;2023-09-19T09:31:34;97162.41;;;18.62;81.85
6668;BME280;3370;47.712;9.082;2023-09-19T09:34:00;97164.56;;;18.56;82.39
6668;BME280;3370;47.712;9.082;2023-09-19T09:36:39;97164.16;;;18.38;83.42
6668;BME280;3370;47.712;9.082;2023-09-19T09:39:07;97165.69;;;18.41;81.79
6668;BME280;3370;47.712;9.082;2023-09-19T09:41:50;97167.78;;;18.25;82.42
6668;BME280;3370;47.712;9.082;2023-09-19T09:44:17;97166.59;;;18.29;83.49
6668;BME280;3370;47.712;9.082;2023-09-19T09:46:46;97158.56;;;18.20;83.37
6668;BME280;3370;47.712;9.082;2023-09-19T09:49:26;97159.84;;;18.15;82.89
6668;BME280;3370;47.712;9.082;2023-09-19T09:54:28;97161.56;;;18.03;83.79
6668;BME280;3370;47.712;9.082;2023-09-19T09:57:15;97162.84;;;17.97;82.46
6668;BME280;3370;47.712;9.082;2023-09-19T10:00:00;97161.91;;;17.98;83.26
6668;BME280;3370;47.712;9.082;2023-09-19T10:02:42;97153.97;;;18.00;84.46
6668;BME280;3370;47.712;9.082;2023-09-19T10:05:13;97157.44;;;18.00;85.31
6668;BME280;3370;47.712;9.082;2023-09-19T10:07:56;97158.03;;;18.04;83.70
6668;BME280;3370;47.712;9.082;2023-09-19T10:10:34;97160.63;;;18.04;82.92
6668;BME280;3370;47.712;9.082;2023-09-19T10:13:20;97161.25;;;18.08;82.71
6668;BME280;3370;47.712;9.082;2023-09-19T10:15:51;97164.66;;;18.08;82.54
6668;BME280;3370;47.712;9.082;2023-09-19T10:18:22;97159.25;;;18.11;83.43
6668;BME280;3370;47.712;9.082;2023-09-19T10:20:51;97169.03;;;18.08;82.89
6668;BME280;3370;47.712;9.082;2023-09-19T10:23:20;97162.09;;;18.19;84.58
6668;BME280;3370;47.712;9.082;2023-09-19T10:25:50;97169.91;;;18.19;84.03
6668;BME280;3370;47.712;9.082;2023-09-19T10:28:19;97159.47;;;18.19;83.34
6668;BME280;3370;47.712;9.082;2023-09-19T10:30:50;97163.75;;;18.20;82.22
6668;BME280;3370;47.712;9.082;2023-09-19T10:33:21;97163.81;;;18.43;83.32
6668;BME280;3370;47.712;9.082;2023-09-19T10:35:49;97164.63;;;18.44;82.51
6668;BME280;3370;47.712;9.082;2023-09-19T10:38:24;97170.31;;;18.37;81.18
6668;BME280;3370;47.712;9.082;2023-09-19T10:40:55;97169.00;;;18.32;82.21
6668;BME280;3370;47.712;9.082;2023-09-19T10:43:30;97157.47;;;18.23;82.18
6668;BME280;3370;47.712;9.082;2023-09-19T10:46:01;97167.31;;;18.31;81.03
6668;BME280;3370;47.712;9.082;2023-09-19T10:48:31;97162.78;;;18.57;81.67
6668;BME280;3370;47.712;9.082;2023-09-19T10:51:11;97164.94;;;19.20;79.93
6668;BME280;3370;47.712;9.082;2023-09-19T10:54:12;97158.34;;;19.82;78.06
6668;BME280;3370;47.712;9.082;2023-09-19T10:56:50;97159.56;;;19.99;75.59
6668;BME280;3370;47.712;9.082;2023-09-19T10:59:22;97162.88;;;20.43;72.73
6668;BME280;3370;47.712;9.082;2023-09-19T11:01:56;97160.97;;;20.45;72.06
6668;BME280;3370;47.712;9.082;2023-09-19T11:04:35;97158.75;;;19.98;73.20
6668;BME280;3370;47.712;9.082;2023-09-19T11:07:12;97159.78;;;19.75;71.91
6668;BME280;3370;47.712;9.082;2023-09-19T11:09:53;97152.47;;;19.46;76.46
6668;BME280;3370;47.712;9.082;2023-09-19T11:15:07;97146.09;;;19.16;78.27
6668;BME280;3370;47.712;9.082;2023-09-19T11:17:35;97141.13;;;19.24;79.07
6668;BME280;3370;47.712;9.082;2023-09-19T11:30:50;97147.63;;;19.30;77.26
6668;BME280;3370;47.712;9.082;2023-09-19T11:33:31;97137.84;;;18.88;78.73
6668;BME280;3370;47.712;9.082;2023-09-19T11:36:16;97130.94;;;19.21;79.46
6668;BME280;3370;47.712;9.082;2023-09-19T11:43:49;97133.22;;;20.96;70.88
6668;BME280;3370;47.712;9.082;2023-09-19T11:46:17;97131.22;;;21.19;69.31
6668;BME280;3370;47.712;9.082;2023-09-19T11:48:48;97127.84;;;22.55;67.89
6668;BME280;3370;47.712;9.082;2023-09-19T11:51:23;97118.25;;;22.16;65.43
6668;BME280;3370;47.712;9.082;2023-09-19T11:53:55;97130.38;;;22.27;62.71
6668;BME280;3370;47.712;9.082;2023-09-19T11:56:23;97131.75;;;22.31;61.37
6668;BME280;3370;47.712;9.082;2023-09-19T11:58:55;97116.84;;;22.42;62.49
6668;BME280;3370;47.712;9.082;2023-09-19T12:01:32;97116.31;;;23.13;61.85
6668;BME280;3370;47.712;9.082;2023-09-19T12:04:02;97113.63;;;23.05;61.35
6668;BME280;3370;47.712;9.082;2023-09-19T12:06:30;97106.41;;;24.24;62.54
6668;BME280;3370;47.712;9.082;2023-09-19T12:09:00;97107.19;;;23.63;57.50
6668;BME280;3370;47.712;9.082;2023-09-19T12:11:30;97113.41;;;23.98;57.22
6668;BME280;3370;47.712;9.082;2023-09-19T12:13:59;97103.78;;;24.77;54.69
6668;BME280;3370;47.712;9.082;2023-09-19T12:16:26;97099.91;;;23.92;54.79
6668;BME280;3370;47.712;9.082;2023-09-19T12:18:56;97093.06;;;24.44;56.37
6668;BME280;3370;47.712;9.082;2023-09-19T12:21:31;97092.63;;;24.75;54.77
6668;BME280;3370;47.712;9.082;2023-09-19T12:26:43;97087.19;;;25.19;54.57
6668;BME280;3370;47.712;9.082;2023-09-19T12:29:20;97091.69;;;24.58;53.60
6668;BME280;3370;47.712;9.082;2023-09-19T12:31:58;97083.03;;;25.08;55.33
6668;BME280;3370;47.712;9.082;2023-09-19T12:34:31;97082.03;;;25.01;52.39
6668;BME280;3370;47.712;9.082;2023-09-19T12:37:14;97074.03;;;24.76;51.37
6668;BME280;3370;47.712;9.082;2023-09-19T12:39:51;97071.16;;;25.38;50.13
6668;BME280;3370;47.712;9.082;2023-09-19T12:42:23;97072.66;;;26.07;51.49
6668;BME280;3370;47.712;9.082;2023-09-19T12:44:52;97069.03;;;25.67;51.24
6668;BME280;3370;47.712;9.082;2023-09-19T12:47:23;97088.69;;;24.26;52.90
6668;BME280;3370;47.712;9.082;2023-09-19T12:52:47;97079.22;;;23.53;57.22
6668;BME280;3370;47.712;9.082;2023-09-19T12:55:28;97067.88;;;23.71;54.85
6668;BME280;3370;47.712;9.082;2023-09-19T12:58:13;97069.72;;;24.41;54.48
6668;BME280;3370;47.712;9.082;2023-09-19T13:00:45;97065.16;;;24.77;53.27
6668;BME280;3370;47.712;9.082;2023-09-19T13:05:57;97057.53;;;23.51;53.98
6668;BME280;3370;47.712;9.082;2023-09-19T13:08:34;97053.53;;;24.27;53.59
6668;BME280;3370;47.712;9.082;2023-09-19T13:11:09;97051.63;;;25.06;51.50
6668;BME280;3370;47.712;9.082;2023-09-19T13:13:37;97050.69;;;24.47;51.35
6668;BME280;3370;47.712;9.082;2023-09-19T13:16:04;97051.91;;;24.26;54.51
6668;BME280;3370;47.712;9.082;2023-09-19T13:18:46;97051.13;;;24.34;54.24
6668;BME280;3370;47.712;9.082;2023-09-19T13:21:13;97046.00;;;25.01;52.41
6668;BME280;3370;47.712;9.082;2023-09-19T13:23:54;97040.03;;;24.48;52.42
6668;BME280;3370;47.712;9.082;2023-09-19T13:26:27;97045.28;;;23.96;52.62
6668;BME280;3370;47.712;9.082;2023-09-19T13:28:54;97049.97;;;23.66;54.08
6668;BME280;3370;47.712;9.082;2023-09-19T13:31:20;97042.97;;;24.19;53.58
6668;BME280;3370;47.712;9.082;2023-09-19T13:33:48;97037.16;;;23.81;55.55
6668;BME280;3370;47.712;9.082;2023-09-19T13:36:15;97032.63;;;23.91;53.60
6668;BME280;3370;47.712;9.082;2023-09-19T13:38:43;97035.03;;;23.67;55.25
6668;BME280;3370;47.712;9.082;2023-09-19T13:41:10;97027.28;;;24.54;55.08
6668;BME280;3370;47.712;9.082;2023-09-19T13:43:37;97016.25;;;24.24;54.44
6668;BME280;3370;47.712;9.082;2023-09-19T13:46:05;97026.44;;;24.27;53.99
6668;BME280;3370;47.712;9.082;2023-09-19T13:48:33;97027.59;;;24.24;54.26
6668;BME280;3370;47.712;9.082;2023-09-19T13:51:02;97018.59;;;24.61;57.06
6668;BME280;3370;47.712;9.082;2023-09-19T13:53:29;97026.00;;;23.87;55.49
6668;BME280;3370;47.712;9.082;2023-09-19T13:55:55;97027.38;;;23.91;53.57
6668;BME280;3370;47.712;9.082;2023-09-19T13:58:21;97017.59;;;24.28;54.09
6668;BME280;3370;47.712;9.082;2023-09-19T14:00:48;97012.63;;;24.51;52.89
6668;BME280;3370;47.712;9.082;2023-09-19T14:03:14;97005.91;;;24.99;53.76
6668;BME280;3370;47.712;9.082;2023-09-19T14:05:40;97005.75;;;24.58;52.41
6668;BME280;3370;47.712;9.082;2023-09-19T14:08:08;97007.78;;;24.64;53.92
6668;BME280;3370;47.712;9.082;2023-09-19T14:10:34;97003.38;;;24.13;54.36
6668;BME280;3370;47.712;9.082;2023-09-19T14:13:00;97000.06;;;24.37;53.00
6668;BME280;3370;47.712;9.082;2023-09-19T14:15:27;96989.94;;;24.50;54.75
6668;BME280;3370;47.712;9.082;2023-09-19T14:17:57;96982.81;;;24.68;53.89
6668;BME280;3370;47.712;9.082;2023-09-19T14:20:23;96984.94;;;24.04;53.07
6668;BME280;3370;47.712;9.082;2023-09-19T14:22:49;96984.69;;;24.50;53.29
6668;BME280;3370;47.712;9.082;2023-09-19T14:25:15;96983.28;;;24.64;52.29